sensor_id;sensor_type;location;lat;lon;timestamp;P1;durP1;ratioP1;P2;durP2;ratioP2
24663;SDS011;12791;50.992;13.788;2023-08-07T00:01:39;0.80;;;0.80;;
24663;SDS011;12791;50.992;13.788;2023-08-07T00:04:06;1.05;;;0.60;;
24663;SDS011;12791;50.992;13.788;2023-08-07T00:06:32;0.95;;;0.70;;
24663;SDS011;12791;50.992;13.788;2023-08-07T00:08:59;1.95;;;0.80;;
24663;SDS011;12791;50.992;13.788;2023-08-07T00:11:27;1.40;;;0.85;;
24663;SDS011;12791;50.992;13.788;2023-08-07T00:13:54;2.50;;;0.80;;
24663;SDS011;12791;50.992;13.788;2023-08-07T00:16:20;0.75;;;0.73;;
24663;SDS011;12791;50.992;13.788;2023-08-07T00:18:47;0.82;;;0.82;;
24663;SDS011;12791;50.992;13.788;2023-08-07T00:21:14;2.80;;;1.33;;
24663;SDS011;12791;50.992;13.788;2023-08-07T00:23:40;0.90;;;0.90;;
24663;SDS011;12791;50.992;13.788;2023-08-07T00:26:07;1.27;;;0.95;;
24663;SDS011;12791;50.992;13.788;2023-08-07T00:28:35;0.88;;;0.80;;
24663;SDS011;12791;50.992;13.788;2023-08-07T00:31:02;0.95;;;0.90;;
24663;SDS011;12791;50.992;13.788;2023-08-07T00:33:28;1.00;;;1.00;;
24663;SDS011;12791;50.992;13.788;2023-08-07T00:35:55;1.15;;;1.10;;
24663;SDS011;12791;50.992;13.788;2023-08-07T00:38:22;1.00;;;0.90;;
24663;SDS011;12791;50.992;13.788;2023-08-07T00:40:48;0.90;;;0.80;;
24663;SDS011;12791;50.992;13.788;2023-08-07T00:43:15;2.05;;;1.00;;
24663;SDS011;12791;50.992;13.788;2023-08-07T00:45:43;1.00;;;0.88;;
24663;SDS011;12791;50.992;13.788;2023-08-07T00:48:12;4.03;;;1.33;;
24663;SDS011;12791;50.992;13.788;2023-08-07T00:50:41;1.40;;;0.90;;
24663;SDS011;12791;50.992;13.788;2023-08-07T00:53:08;3.80;;;1.45;;
24663;SDS011;12791;50.992;13.788;2023-08-07T00:55:35;1.00;;;1.00;;
24663;SDS011;12791;50.992;13.788;2023-08-07T00:58:02;2.50;;;1.00;;
24663;SDS011;12791;50.992;13.788;2023-08-07T01:00:29;1.10;;;1.02;;
24663;SDS011;12791;50.992;13.788;2023-08-07T01:02:57;2.35;;;1.10;;
24663;SDS011;12791;50.992;13.788;2023-08-07T01:05:25;0.90;;;0.90;;
24663;SDS011;12791;50.992;13.788;2023-08-07T01:07:52;1.00;;;0.70;;
24663;SDS011;12791;50.992;13.788;2023-08-07T01:10:22;1.90;;;1.00;;
24663;SDS011;12791;50.992;13.788;2023-08-07T01:13:00;0.90;;;0.90;;
24663;SDS011;12791;50.992;13.788;2023-08-07T01:15:31;0.90;;;0.90;;
24663;SDS011;12791;50.992;13.788;2023-08-07T01:18:01;1.17;;;1.17;;
24663;SDS011;12791;50.992;13.788;2023-08-07T01:20:29;1.60;;;1.50;;
24663;SDS011;12791;50.992;13.788;2023-08-07T01:22:57;1.42;;;1.42;;
24663;SDS011;12791;50.992;13.788;2023-08-07T01:25:24;1.60;;;1.50;;
24663;SDS011;12791;50.992;13.788;2023-08-07T01:27:53;1.48;;;1.45;;
24663;SDS011;12791;50.992;13.788;2023-08-07T01:30:29;1.40;;;1.30;;
24663;SDS011;12791;50.992;13.788;2023-08-07T01:33:02;1.88;;;1.25;;
24663;SDS011;12791;50.992;13.788;2023-08-07T01:35:36;1.42;;;1.33;;
24663;SDS011;12791;50.992;13.788;2023-08-07T01:38:07;2.05;;;1.40;;
24663;SDS011;12791;50.992;13.788;2023-08-07T01:40:34;1.73;;;1.35;;
24663;SDS011;12791;50.992;13.788;2023-08-07T01:43:03;1.85;;;1.38;;
24663;SDS011;12791;50.992;13.788;2023-08-07T01:45:30;1.35;;;1.25;;
24663;SDS011;12791;50.992;13.788;2023-08-07T01:47:57;1.13;;;1.13;;
24663;SDS011;12791;50.992;13.788;2023-08-07T01:50:23;1.00;;;1.00;;
24663;SDS011;12791;50.992;13.788;2023-08-07T01:52:50;0.93;;;0.93;;
24663;SDS011;12791;50.992;13.788;2023-08-07T01:55:19;1.08;;;0.95;;
24663;SDS011;12791;50.992;13.788;2023-08-07T01:57:47;0.93;;;0.93;;
24663;SDS011;12791;50.992;13.788;2023-08-07T02:00:14;1.20;;;1.10;;
24663;SDS011;12791;50.992;13.788;2023-08-07T02:02:40;1.58;;;1.30;;
24663;SDS011;12791;50.992;13.788;2023-08-07T02:05:07;1.38;;;1.27;;
24663;SDS011;12791;50.992;13.788;2023-08-07T02:07:34;2.10;;;1.15;;
24663;SDS011;12791;50.992;13.788;2023-08-07T02:10:00;1.40;;;1.30;;
24663;SDS011;12791;50.992;13.788;2023-08-07T02:12:28;1.38;;;1.27;;
24663;SDS011;12791;50.992;13.788;2023-08-07T02:14:57;1.10;;;1.02;;
24663;SDS011;12791;50.992;13.788;2023-08-07T02:17:24;1.17;;;1.08;;
24663;SDS011;12791;50.992;13.788;2023-08-07T02:19:51;1.02;;;1.02;;
24663;SDS011;12791;50.992;13.788;2023-08-07T02:22:17;1.52;;;1.45;;
24663;SDS011;12791;50.992;13.788;2023-08-07T02:24:44;1.52;;;1.42;;
24663;SDS011;12791;50.992;13.788;2023-08-07T02:27:11;2.78;;;1.77;;
24663;SDS011;12791;50.992;13.788;2023-08-07T02:29:39;1.95;;;1.85;;
24663;SDS011;12791;50.992;13.788;2023-08-07T02:32:06;2.25;;;2.15;;
24663;SDS011;12791;50.992;13.788;2023-08-07T02:34:33;2.38;;;2.05;;
24663;SDS011;12791;50.992;13.788;2023-08-07T02:36:59;2.70;;;2.60;;
24663;SDS011;12791;50.992;13.788;2023-08-07T02:39:26;3.22;;;3.00;;
24663;SDS011;12791;50.992;13.788;2023-08-07T02:41:53;2.45;;;2.15;;
24663;SDS011;12791;50.992;13.788;2023-08-07T02:44:19;3.10;;;2.80;;
24663;SDS011;12791;50.992;13.788;2023-08-07T02:46:47;2.90;;;2.70;;
24663;SDS011;12791;50.992;13.788;2023-08-07T02:49:14;2.80;;;2.70;;
24663;SDS011;12791;50.992;13.788;2023-08-07T02:51:41;3.08;;;2.83;;
24663;SDS011;12791;50.992;13.788;2023-08-07T02:54:07;3.42;;;3.20;;
24663;SDS011;12791;50.992;13.788;2023-08-07T02:56:34;3.00;;;2.90;;
24663;SDS011;12791;50.992;13.788;2023-08-07T02:59:01;3.33;;;3.13;;
24663;SDS011;12791;50.992;13.788;2023-08-07T03:01:27;3.22;;;3.08;;
24663;SDS011;12791;50.992;13.788;2023-08-07T03:03:55;3.95;;;3.65;;
24663;SDS011;12791;50.992;13.788;2023-08-07T03:06:22;3.22;;;3.03;;
24663;SDS011;12791;50.992;13.788;2023-08-07T03:08:49;3.67;;;3.47;;
24663;SDS011;12791;50.992;13.788;2023-08-07T03:11:16;3.00;;;2.88;;
24663;SDS011;12791;50.992;13.788;2023-08-07T03:13:42;3.15;;;2.95;;
24663;SDS011;12791;50.992;13.788;2023-08-07T03:16:10;2.30;;;2.20;;
24663;SDS011;12791;50.992;13.788;2023-08-07T03:18:37;2.22;;;2.13;;
24663;SDS011;12791;50.992;13.788;2023-08-07T03:21:05;1.83;;;1.70;;
24663;SDS011;12791;50.992;13.788;2023-08-07T03:23:31;2.10;;;1.80;;
24663;SDS011;12791;50.992;13.788;2023-08-07T03:26:01;2.95;;;1.75;;
24663;SDS011;12791;50.992;13.788;2023-08-07T03:28:29;1.92;;;1.67;;
24663;SDS011;12791;50.992;13.788;2023-08-07T03:30:55;2.05;;;1.60;;
24663;SDS011;12791;50.992;13.788;2023-08-07T03:33:22;1.40;;;1.30;;
24663;SDS011;12791;50.992;13.788;2023-08-07T03:35:49;1.73;;;1.60;;
24663;SDS011;12791;50.992;13.788;2023-08-07T03:38:17;1.63;;;1.42;;
24663;SDS011;12791;50.992;13.788;2023-08-07T03:40:43;1.65;;;1.55;;
24663;SDS011;12791;50.992;13.788;2023-08-07T03:43:10;1.60;;;1.50;;
24663;SDS011;12791;50.992;13.788;2023-08-07T03:45:37;1.60;;;1.50;;
24663;SDS011;12791;50.992;13.788;2023-08-07T03:48:04;1.60;;;1.50;;
24663;SDS011;12791;50.992;13.788;2023-08-07T03:50:31;3.65;;;1.70;;
24663;SDS011;12791;50.992;13.788;2023-08-07T03:52:59;2.15;;;1.50;;
24663;SDS011;12791;50.992;13.788;2023-08-07T03:55:27;1.45;;;1.30;;
24663;SDS011;12791;50.992;13.788;2023-08-07T03:57:54;1.63;;;1.35;;
24663;SDS011;12791;50.992;13.788;2023-08-07T04:00:21;2.00;;;1.40;;
24663;SDS011;12791;50.992;13.788;2023-08-07T04:02:48;1.42;;;1.30;;
24663;SDS011;12791;50.992;13.788;2023-08-07T04:05:14;1.88;;;1.40;;
24663;SDS011;12791;50.992;13.788;2023-08-07T04:07:41;1.65;;;1.45;;
24663;SDS011;12791;50.992;13.788;2023-08-07T04:10:08;2.25;;;1.50;;
24663;SDS011;12791;50.992;13.788;2023-08-07T04:12:36;2.17;;;1.75;;
24663;SDS011;12791;50.992;13.788;2023-08-07T04:15:03;3.08;;;2.13;;
24663;SDS011;12791;50.992;13.788;2023-08-07T04:17:31;2.47;;;2.28;;
24663;SDS011;12791;50.992;13.788;2023-08-07T04:19:58;2.63;;;2.42;;
24663;SDS011;12791;50.992;13.788;2023-08-07T04:22:25;4.15;;;3.22;;
24663;SDS011;12791;50.992;13.788;2023-08-07T04:24:52;3.17;;;2.90;;
24663;SDS011;12791;50.992;13.788;2023-08-07T04:27:18;3.53;;;2.83;;
24663;SDS011;12791;50.992;13.788;2023-08-07T04:29:46;3.30;;;3.00;;
24663;SDS011;12791;50.992;13.788;2023-08-07T04:32:13;3.00;;;2.80;;
24663;SDS011;12791;50.992;13.788;2023-08-07T04:34:40;3.75;;;3.45;;
24663;SDS011;12791;50.992;13.788;2023-08-07T04:37:06;3.95;;;3.65;;
24663;SDS011;12791;50.992;13.788;2023-08-07T04:39:33;3.83;;;3.47;;
24663;SDS011;12791;50.992;13.788;2023-08-07T04:42:00;3.38;;;3.13;;
24663;SDS011;12791;50.992;13.788;2023-08-07T04:44:27;3.63;;;3.38;;
24663;SDS011;12791;50.992;13.788;2023-08-07T04:46:55;4.32;;;4.00;;
24663;SDS011;12791;50.992;13.788;2023-08-07T04:49:22;4.10;;;3.80;;
24663;SDS011;12791;50.992;13.788;2023-08-07T04:51:48;4.70;;;4.28;;
24663;SDS011;12791;50.992;13.788;2023-08-07T04:54:15;5.15;;;4.65;;
24663;SDS011;12791;50.992;13.788;2023-08-07T04:56:42;5.05;;;4.60;;
24663;SDS011;12791;50.992;13.788;2023-08-07T04:59:09;5.20;;;4.75;;
24663;SDS011;12791;50.992;13.788;2023-08-07T05:01:36;5.20;;;4.80;;
24663;SDS011;12791;50.992;13.788;2023-08-07T05:04:04;5.05;;;4.65;;
24663;SDS011;12791;50.992;13.788;2023-08-07T05:06:31;6.57;;;5.03;;
24663;SDS011;12791;50.992;13.788;2023-08-07T05:08:58;5.40;;;5.00;;
24663;SDS011;12791;50.992;13.788;2023-08-07T05:11:24;5.13;;;4.63;;
24663;SDS011;12791;50.992;13.788;2023-08-07T05:13:51;5.00;;;4.60;;
24663;SDS011;12791;50.992;13.788;2023-08-07T05:16:18;5.15;;;4.65;;
24663;SDS011;12791;50.992;13.788;2023-08-07T05:18:44;5.85;;;4.50;;
24663;SDS011;12791;50.992;13.788;2023-08-07T05:21:12;4.93;;;4.57;;
24663;SDS011;12791;50.992;13.788;2023-08-07T05:23:39;4.85;;;4.45;;
24663;SDS011;12791;50.992;13.788;2023-08-07T05:26:06;4.82;;;4.53;;
24663;SDS011;12791;50.992;13.788;2023-08-07T05:28:32;4.63;;;4.32;;
24663;SDS011;12791;50.992;13.788;2023-08-07T05:30:59;6.55;;;4.88;;
24663;SDS011;12791;50.992;13.788;2023-08-07T05:33:26;4.97;;;4.60;;
24663;SDS011;12791;50.992;13.788;2023-08-07T05:35:52;4.70;;;4.35;;
24663;SDS011;12791;50.992;13.788;2023-08-07T05:38:21;5.15;;;4.68;;
24663;SDS011;12791;50.992;13.788;2023-08-07T05:40:48;4.25;;;3.95;;
24663;SDS011;12791;50.992;13.788;2023-08-07T05:43:15;4.78;;;4.38;;
24663;SDS011;12791;50.992;13.788;2023-08-07T05:45:42;4.78;;;4.38;;
24663;SDS011;12791;50.992;13.788;2023-08-07T05:48:11;4.35;;;3.88;;
24663;SDS011;12791;50.992;13.788;2023-08-07T05:50:38;5.20;;;4.68;;
24663;SDS011;12791;50.992;13.788;2023-08-07T05:53:04;4.88;;;4.20;;
24663;SDS011;12791;50.992;13.788;2023-08-07T05:55:33;4.20;;;3.75;;
24663;SDS011;12791;50.992;13.788;2023-08-07T05:57:59;3.53;;;3.33;;
24663;SDS011;12791;50.992;13.788;2023-08-07T06:00:26;3.35;;;3.15;;
24663;SDS011;12791;50.992;13.788;2023-08-07T06:02:53;4.22;;;3.65;;
24663;SDS011;12791;50.992;13.788;2023-08-07T06:05:20;3.63;;;2.83;;
24663;SDS011;12791;50.992;13.788;2023-08-07T06:07:46;3.58;;;3.35;;
24663;SDS011;12791;50.992;13.788;2023-08-07T06:10:13;3.90;;;3.42;;
24663;SDS011;12791;50.992;13.788;2023-08-07T06:12:41;3.45;;;2.78;;
24663;SDS011;12791;50.992;13.788;2023-08-07T06:15:08;3.92;;;2.80;;
24663;SDS011;12791;50.992;13.788;2023-08-07T06:17:35;3.40;;;3.05;;
24663;SDS011;12791;50.992;13.788;2023-08-07T06:20:04;3.42;;;3.22;;
24663;SDS011;12791;50.992;13.788;2023-08-07T06:22:34;2.65;;;2.45;;
24663;SDS011;12791;50.992;13.788;2023-08-07T06:25:00;2.80;;;2.50;;
24663;SDS011;12791;50.992;13.788;2023-08-07T06:27:27;2.85;;;2.65;;
24663;SDS011;12791;50.992;13.788;2023-08-07T06:29:56;3.83;;;2.75;;
24663;SDS011;12791;50.992;13.788;2023-08-07T06:34:50;3.20;;;2.20;;
24663;SDS011;12791;50.992;13.788;2023-08-07T06:37:17;2.20;;;2.10;;
24663;SDS011;12791;50.992;13.788;2023-08-07T06:39:43;2.08;;;1.98;;
24663;SDS011;12791;50.992;13.788;2023-08-07T06:42:11;2.53;;;2.10;;
24663;SDS011;12791;50.992;13.788;2023-08-07T06:44:38;4.20;;;2.03;;
24663;SDS011;12791;50.992;13.788;2023-08-07T06:47:06;1.85;;;1.63;;
24663;SDS011;12791;50.992;13.788;2023-08-07T06:49:33;1.83;;;1.73;;
24663;SDS011;12791;50.992;13.788;2023-08-07T06:52:00;1.83;;;1.73;;
24663;SDS011;12791;50.992;13.788;2023-08-07T06:54:27;3.65;;;1.83;;
24663;SDS011;12791;50.992;13.788;2023-08-07T06:56:53;1.60;;;1.50;;
24663;SDS011;12791;50.992;13.788;2023-08-07T06:59:20;1.48;;;1.38;;
24663;SDS011;12791;50.992;13.788;2023-08-07T07:01:47;1.85;;;1.75;;
24663;SDS011;12791;50.992;13.788;2023-08-07T07:04:15;2.33;;;2.05;;
24663;SDS011;12791;50.992;13.788;2023-08-07T07:06:42;2.15;;;2.05;;
24663;SDS011;12791;50.992;13.788;2023-08-07T07:09:08;2.70;;;1.42;;
24663;SDS011;12791;50.992;13.788;2023-08-07T07:11:35;1.88;;;1.73;;
24663;SDS011;12791;50.992;13.788;2023-08-07T07:14:03;1.80;;;1.70;;
24663;SDS011;12791;50.992;13.788;2023-08-07T07:16:29;1.42;;;1.33;;
24663;SDS011;12791;50.992;13.788;2023-08-07T07:18:56;1.75;;;1.50;;
24663;SDS011;12791;50.992;13.788;2023-08-07T07:21:24;1.77;;;1.35;;
24663;SDS011;12791;50.992;13.788;2023-08-07T07:23:51;1.50;;;1.40;;
24663;SDS011;12791;50.992;13.788;2023-08-07T07:26:18;1.55;;;1.45;;
24663;SDS011;12791;50.992;13.788;2023-08-07T07:28:44;1.27;;;1.27;;
24663;SDS011;12791;50.992;13.788;2023-08-07T07:31:11;2.13;;;1.10;;
24663;SDS011;12791;50.992;13.788;2023-08-07T07:33:38;1.02;;;1.00;;
24663;SDS011;12791;50.992;13.788;2023-08-07T07:36:06;1.33;;;1.20;;
24663;SDS011;12791;50.992;13.788;2023-08-07T07:38:34;1.40;;;1.00;;
24663;SDS011;12791;50.992;13.788;2023-08-07T07:41:00;1.20;;;1.20;;
24663;SDS011;12791;50.992;13.788;2023-08-07T07:43:27;1.10;;;0.90;;
24663;SDS011;12791;50.992;13.788;2023-08-07T07:45:54;1.52;;;0.95;;
24663;SDS011;12791;50.992;13.788;2023-08-07T07:48:21;1.52;;;1.10;;
24663;SDS011;12791;50.992;13.788;2023-08-07T07:50:48;1.38;;;1.27;;
24663;SDS011;12791;50.992;13.788;2023-08-07T07:53:14;1.38;;;1.08;;
24663;SDS011;12791;50.992;13.788;2023-08-07T07:55:46;1.95;;;0.98;;
24663;SDS011;12791;50.992;13.788;2023-08-07T07:58:13;0.80;;;0.80;;
24663;SDS011;12791;50.992;13.788;2023-08-07T08:00:39;1.48;;;0.77;;
24663;SDS011;12791;50.992;13.788;2023-08-07T08:03:07;2.50;;;1.00;;
24663;SDS011;12791;50.992;13.788;2023-08-07T08:05:34;0.95;;;0.82;;
24663;SDS011;12791;50.992;13.788;2023-08-07T08:08:01;1.48;;;0.80;;
24663;SDS011;12791;50.992;13.788;2023-08-07T08:10:27;1.88;;;0.75;;
24663;SDS011;12791;50.992;13.788;2023-08-07T08:12:55;0.70;;;0.70;;
24663;SDS011;12791;50.992;13.788;2023-08-07T08:15:22;0.70;;;0.70;;
24663;SDS011;12791;50.992;13.788;2023-08-07T08:17:50;1.08;;;0.60;;
24663;SDS011;12791;50.992;13.788;2023-08-07T08:20:16;2.45;;;1.00;;
24663;SDS011;12791;50.992;13.788;2023-08-07T08:22:44;1.52;;;0.77;;
24663;SDS011;12791;50.992;13.788;2023-08-07T08:25:11;0.73;;;0.73;;
24663;SDS011;12791;50.992;13.788;2023-08-07T08:27:38;1.08;;;0.82;;
24663;SDS011;12791;50.992;13.788;2023-08-07T08:30:06;0.65;;;0.60;;
24663;SDS011;12791;50.992;13.788;2023-08-07T08:32:33;1.77;;;0.85;;
24663;SDS011;12791;50.992;13.788;2023-08-07T08:35:00;1.83;;;0.70;;
24663;SDS011;12791;50.992;13.788;2023-08-07T08:37:27;1.05;;;0.63;;
24663;SDS011;12791;50.992;13.788;2023-08-07T08:39:54;2.97;;;0.90;;
24663;SDS011;12791;50.992;13.788;2023-08-07T08:42:21;1.85;;;0.90;;
24663;SDS011;12791;50.992;13.788;2023-08-07T08:44:50;0.82;;;0.80;;
24663;SDS011;12791;50.992;13.788;2023-08-07T08:47:20;0.93;;;0.70;;
24663;SDS011;12791;50.992;13.788;2023-08-07T08:49:47;1.23;;;0.70;;
24663;SDS011;12791;50.992;13.788;2023-08-07T08:52:16;0.80;;;0.80;;
24663;SDS011;12791;50.992;13.788;2023-08-07T08:54:44;1.45;;;0.75;;
24663;SDS011;12791;50.992;13.788;2023-08-07T08:57:11;1.30;;;0.80;;
24663;SDS011;12791;50.992;13.788;2023-08-07T08:59:38;1.40;;;0.82;;
24663;SDS011;12791;50.992;13.788;2023-08-07T09:02:07;1.83;;;0.63;;
24663;SDS011;12791;50.992;13.788;2023-08-07T09:04:36;2.03;;;0.90;;
24663;SDS011;12791;50.992;13.788;2023-08-07T09:07:03;1.10;;;0.60;;
24663;SDS011;12791;50.992;13.788;2023-08-07T09:09:31;1.45;;;0.60;;
24663;SDS011;12791;50.992;13.788;2023-08-07T09:11:58;0.70;;;0.60;;
24663;SDS011;12791;50.992;13.788;2023-08-07T09:14:26;0.63;;;0.63;;
24663;SDS011;12791;50.992;13.788;2023-08-07T09:16:55;0.95;;;0.80;;
24663;SDS011;12791;50.992;13.788;2023-08-07T09:19:24;0.95;;;0.60;;
24663;SDS011;12791;50.992;13.788;2023-08-07T09:21:53;1.25;;;0.60;;
24663;SDS011;12791;50.992;13.788;2023-08-07T09:24:19;0.70;;;0.70;;
24663;SDS011;12791;50.992;13.788;2023-08-07T09:26:47;1.00;;;0.68;;
24663;SDS011;12791;50.992;13.788;2023-08-07T09:29:16;0.68;;;0.68;;
24663;SDS011;12791;50.992;13.788;2023-08-07T09:31:43;0.60;;;0.60;;
24663;SDS011;12791;50.992;13.788;2023-08-07T09:34:11;1.27;;;0.60;;
24663;SDS011;12791;50.992;13.788;2023-08-07T09:36:39;0.60;;;0.60;;
24663;SDS011;12791;50.992;13.788;2023-08-07T09:39:08;1.63;;;0.57;;
24663;SDS011;12791;50.992;13.788;2023-08-07T09:41:36;0.95;;;0.60;;
24663;SDS011;12791;50.992;13.788;2023-08-07T09:44:05;1.65;;;1.00;;
24663;SDS011;12791;50.992;13.788;2023-08-07T09:46:32;1.48;;;0.60;;
24663;SDS011;12791;50.992;13.788;2023-08-07T09:49:07;3.97;;;0.60;;
24663;SDS011;12791;50.992;13.788;2023-08-07T09:51:40;1.90;;;0.60;;
24663;SDS011;12791;50.992;13.788;2023-08-07T09:54:09;0.60;;;0.60;;
24663;SDS011;12791;50.992;13.788;2023-08-07T09:56:36;1.05;;;0.68;;
24663;SDS011;12791;50.992;13.788;2023-08-07T09:59:03;1.83;;;0.50;;
24663;SDS011;12791;50.992;13.788;2023-08-07T10:01:31;0.77;;;0.65;;
24663;SDS011;12791;50.992;13.788;2023-08-07T10:03:58;0.63;;;0.45;;
24663;SDS011;12791;50.992;13.788;2023-08-07T10:06:26;1.27;;;0.40;;
24663;SDS011;12791;50.992;13.788;2023-08-07T10:08:52;1.50;;;0.40;;
24663;SDS011;12791;50.992;13.788;2023-08-07T10:11:22;1.55;;;0.50;;
24663;SDS011;12791;50.992;13.788;2023-08-07T10:13:50;0.73;;;0.60;;
24663;SDS011;12791;50.992;13.788;2023-08-07T10:16:16;0.82;;;0.50;;
24663;SDS011;12791;50.992;13.788;2023-08-07T10:18:43;0.60;;;0.40;;
24663;SDS011;12791;50.992;13.788;2023-08-07T10:21:10;0.50;;;0.50;;
24663;SDS011;12791;50.992;13.788;2023-08-07T10:23:37;0.93;;;0.50;;
24663;SDS011;12791;50.992;13.788;2023-08-07T10:26:06;1.92;;;0.63;;
24663;SDS011;12791;50.992;13.788;2023-08-07T10:28:37;0.52;;;0.43;;
24663;SDS011;12791;50.992;13.788;2023-08-07T10:31:06;1.02;;;0.60;;
24663;SDS011;12791;50.992;13.788;2023-08-07T10:33:35;0.50;;;0.50;;
24663;SDS011;12791;50.992;13.788;2023-08-07T10:36:07;1.55;;;0.50;;
24663;SDS011;12791;50.992;13.788;2023-08-07T10:38:35;1.23;;;0.47;;
24663;SDS011;12791;50.992;13.788;2023-08-07T10:41:04;0.85;;;0.50;;
24663;SDS011;12791;50.992;13.788;2023-08-07T10:43:37;0.93;;;0.55;;
24663;SDS011;12791;50.992;13.788;2023-08-07T10:46:05;0.50;;;0.50;;
24663;SDS011;12791;50.992;13.788;2023-08-07T10:48:38;0.50;;;0.50;;
24663;SDS011;12791;50.992;13.788;2023-08-07T10:51:06;0.52;;;0.52;;
24663;SDS011;12791;50.992;13.788;2023-08-07T10:53:33;0.73;;;0.50;;
24663;SDS011;12791;50.992;13.788;2023-08-07T10:56:02;0.40;;;0.40;;
24663;SDS011;12791;50.992;13.788;2023-08-07T10:58:29;1.30;;;0.82;;
24663;SDS011;12791;50.992;13.788;2023-08-07T11:03:45;0.50;;;0.50;;
24663;SDS011;12791;50.992;13.788;2023-08-07T11:06:14;0.77;;;0.60;;
24663;SDS011;12791;50.992;13.788;2023-08-07T11:08:41;0.45;;;0.45;;
24663;SDS011;12791;50.992;13.788;2023-08-07T11:11:08;0.82;;;0.50;;
24663;SDS011;12791;50.992;13.788;2023-08-07T11:13:34;0.50;;;0.50;;
24663;SDS011;12791;50.992;13.788;2023-08-07T11:16:01;0.50;;;0.50;;
24663;SDS011;12791;50.992;13.788;2023-08-07T11:18:30;0.90;;;0.50;;
24663;SDS011;12791;50.992;13.788;2023-08-07T11:20:57;0.82;;;0.43;;
24663;SDS011;12791;50.992;13.788;2023-08-07T11:23:26;0.40;;;0.40;;
24663;SDS011;12791;50.992;13.788;2023-08-07T11:25:53;1.00;;;0.50;;
24663;SDS011;12791;50.992;13.788;2023-08-07T11:28:20;0.60;;;0.60;;
24663;SDS011;12791;50.992;13.788;2023-08-07T11:30:49;0.80;;;0.60;;
24663;SDS011;12791;50.992;13.788;2023-08-07T11:33:17;0.65;;;0.40;;
24663;SDS011;12791;50.992;13.788;2023-08-07T11:35:45;0.45;;;0.45;;
24663;SDS011;12791;50.992;13.788;2023-08-07T11:38:27;0.50;;;0.50;;
24663;SDS011;12791;50.992;13.788;2023-08-07T11:40:56;0.57;;;0.50;;
24663;SDS011;12791;50.992;13.788;2023-08-07T11:43:24;0.60;;;0.40;;
24663;SDS011;12791;50.992;13.788;2023-08-07T11:45:50;0.75;;;0.40;;
24663;SDS011;12791;50.992;13.788;2023-08-07T11:48:17;0.45;;;0.45;;
24663;SDS011;12791;50.992;13.788;2023-08-07T11:50:46;1.45;;;0.40;;
24663;SDS011;12791;50.992;13.788;2023-08-07T11:53:13;2.22;;;0.50;;
24663;SDS011;12791;50.992;13.788;2023-08-07T11:55:46;0.50;;;0.30;;
24663;SDS011;12791;50.992;13.788;2023-08-07T12:00:41;0.30;;;0.30;;
24663;SDS011;12791;50.992;13.788;2023-08-07T12:03:22;0.30;;;0.30;;
24663;SDS011;12791;50.992;13.788;2023-08-07T12:05:52;0.30;;;0.30;;
24663;SDS011;12791;50.992;13.788;2023-08-07T12:08:19;0.63;;;0.40;;
24663;SDS011;12791;50.992;13.788;2023-08-07T12:10:48;0.38;;;0.30;;
24663;SDS011;12791;50.992;13.788;2023-08-07T12:13:16;0.32;;;0.30;;
24663;SDS011;12791;50.992;13.788;2023-08-07T12:15:45;0.30;;;0.30;;
24663;SDS011;12791;50.992;13.788;2023-08-07T12:18:12;0.30;;;0.25;;
24663;SDS011;12791;50.992;13.788;2023-08-07T12:20:40;0.25;;;0.25;;
24663;SDS011;12791;50.992;13.788;2023-08-07T12:23:13;0.30;;;0.30;;
24663;SDS011;12791;50.992;13.788;2023-08-07T12:25:41;3.25;;;0.20;;
24663;SDS011;12791;50.992;13.788;2023-08-07T12:28:08;0.28;;;0.20;;
24663;SDS011;12791;50.992;13.788;2023-08-07T12:30:34;0.75;;;0.30;;
24663;SDS011;12791;50.992;13.788;2023-08-07T12:33:02;0.30;;;0.30;;
24663;SDS011;12791;50.992;13.788;2023-08-07T12:35:29;0.20;;;0.20;;
24663;SDS011;12791;50.992;13.788;2023-08-07T12:37:56;0.43;;;0.20;;
24663;SDS011;12791;50.992;13.788;2023-08-07T12:40:24;0.50;;;0.28;;
24663;SDS011;12791;50.992;13.788;2023-08-07T12:42:51;0.10;;;0.10;;
24663;SDS011;12791;50.992;13.788;2023-08-07T12:45:17;0.20;;;0.20;;
24663;SDS011;12791;50.992;13.788;2023-08-07T12:47:45;0.30;;;0.30;;
24663;SDS011;12791;50.992;13.788;2023-08-07T12:50:12;0.45;;;0.30;;
24663;SDS011;12791;50.992;13.788;2023-08-07T12:52:38;0.20;;;0.20;;
24663;SDS011;12791;50.992;13.788;2023-08-07T12:55:05;0.20;;;0.20;;
24663;SDS011;12791;50.992;13.788;2023-08-07T12:57:34;0.20;;;0.20;;
24663;SDS011;12791;50.992;13.788;2023-08-07T13:00:01;0.22;;;0.22;;
24663;SDS011;12791;50.992;13.788;2023-08-07T13:02:27;1.70;;;0.20;;
24663;SDS011;12791;50.992;13.788;2023-08-07T13:04:54;0.20;;;0.20;;
24663;SDS011;12791;50.992;13.788;2023-08-07T13:07:22;2.42;;;0.20;;
24663;SDS011;12791;50.992;13.788;2023-08-07T13:09:50;1.05;;;0.25;;
24663;SDS011;12791;50.992;13.788;2023-08-07T13:12:16;0.20;;;0.20;;
24663;SDS011;12791;50.992;13.788;2023-08-07T13:14:44;0.77;;;0.20;;
24663;SDS011;12791;50.992;13.788;2023-08-07T13:17:11;0.47;;;0.20;;
24663;SDS011;12791;50.992;13.788;2023-08-07T13:19:38;0.20;;;0.20;;
24663;SDS011;12791;50.992;13.788;2023-08-07T13:22:05;4.15;;;0.47;;
24663;SDS011;12791;50.992;13.788;2023-08-07T13:24:33;1.10;;;0.20;;
24663;SDS011;12791;50.992;13.788;2023-08-07T13:26:59;0.25;;;0.20;;
24663;SDS011;12791;50.992;13.788;2023-08-07T13:29:27;0.38;;;0.20;;
24663;SDS011;12791;50.992;13.788;2023-08-07T13:31:56;0.28;;;0.15;;
24663;SDS011;12791;50.992;13.788;2023-08-07T13:34:22;0.20;;;0.20;;
24663;SDS011;12791;50.992;13.788;2023-08-07T13:36:49;0.15;;;0.15;;
24663;SDS011;12791;50.992;13.788;2023-08-07T13:39:16;0.65;;;0.13;;
24663;SDS011;12791;50.992;13.788;2023-08-07T13:41:43;0.30;;;0.10;;
24663;SDS011;12791;50.992;13.788;2023-08-07T13:44:09;0.35;;;0.20;;
24663;SDS011;12791;50.992;13.788;2023-08-07T13:46:37;0.55;;;0.28;;
24663;SDS011;12791;50.992;13.788;2023-08-07T13:49:05;0.98;;;0.20;;
24663;SDS011;12791;50.992;13.788;2023-08-07T13:51:31;0.30;;;0.20;;
24663;SDS011;12791;50.992;13.788;2023-08-07T13:53:58;0.20;;;0.20;;
24663;SDS011;12791;50.992;13.788;2023-08-07T13:56:25;0.13;;;0.10;;
24663;SDS011;12791;50.992;13.788;2023-08-07T13:58:51;0.77;;;0.20;;
24663;SDS011;12791;50.992;13.788;2023-08-07T14:01:19;0.20;;;0.20;;
24663;SDS011;12791;50.992;13.788;2023-08-07T14:03:46;0.22;;;0.22;;
24663;SDS011;12791;50.992;13.788;2023-08-07T14:06:14;0.10;;;0.10;;
24663;SDS011;12791;50.992;13.788;2023-08-07T14:08:41;0.20;;;0.20;;
24663;SDS011;12791;50.992;13.788;2023-08-07T14:11:07;1.95;;;0.20;;
24663;SDS011;12791;50.992;13.788;2023-08-07T14:13:34;0.10;;;0.10;;
24663;SDS011;12791;50.992;13.788;2023-08-07T14:16:01;0.40;;;0.20;;
24663;SDS011;12791;50.992;13.788;2023-08-07T14:18:27;2.75;;;0.60;;
24663;SDS011;12791;50.992;13.788;2023-08-07T14:20:54;3.85;;;0.50;;
24663;SDS011;12791;50.992;13.788;2023-08-07T14:23:22;1.60;;;0.40;;
24663;SDS011;12791;50.992;13.788;2023-08-07T14:25:49;0.88;;;0.40;;
24663;SDS011;12791;50.992;13.788;2023-08-07T14:28:17;0.43;;;0.30;;
24663;SDS011;12791;50.992;13.788;2023-08-07T14:30:44;0.68;;;0.20;;
24663;SDS011;12791;50.992;13.788;2023-08-07T14:33:11;0.68;;;0.30;;
24663;SDS011;12791;50.992;13.788;2023-08-07T14:35:38;0.25;;;0.20;;
24663;SDS011;12791;50.992;13.788;2023-08-07T14:38:05;0.30;;;0.30;;
24663;SDS011;12791;50.992;13.788;2023-08-07T14:40:33;0.40;;;0.30;;
24663;SDS011;12791;50.992;13.788;2023-08-07T14:43:03;0.40;;;0.40;;